Time;durP1;ratioP1;P1;durP2;ratioP2;P2;SDS_P1;SDS_P2;PMS_P1;PMS_P2;Temp;Humidity;BMP_temperature;BMP_pressure;BME280_temperature;BME280_humidity;BME280_pressure;Samples;Min_cycle;Max_cycle;Signal;HPM_P1;HPM_P2
2021/05/22 00:01:06;;;;;;;6.75;1.83;;;;;;;9.82;100.00;99424.44;4989089;28;20054;-61
2021/05/22 00:03:33;;;;;;;9.57;1.90;;;;;;;9.74;100.00;99405.56;5009766;28;20059;-65
2021/05/22 00:06:00;;;;;;;6.63;2.08;;;;;;;9.73;100.00;99398.56;5006386;28;20066;-61
2021/05/22 00:08:26;;;;;;;7.50;2.10;;;;;;;9.69;100.00;99382.03;4998333;28;20050;-61
2021/05/22 00:10:53;;;;;;;5.72;1.95;;;;;;;9.68;100.00;99374.19;5005552;28;20050;-62
2021/05/22 00:13:20;;;;;;;7.35;2.05;;;;;;;9.64;100.00;99385.88;5002210;28;20529;-64
2021/05/22 00:15:46;;;;;;;9.93;2.15;;;;;;;9.65;100.00;99392.88;5001510;28;20054;-61
2021/05/22 00:18:13;;;;;;;9.10;2.13;;;;;;;9.73;100.00;99415.28;5001546;28;20053;-64
2021/05/22 00:20:39;;;;;;;6.25;1.70;;;;;;;9.75;100.00;99416.03;5006618;28;20048;-63
2021/05/22 00:23:07;;;;;;;7.65;2.00;;;;;;;9.75;100.00;99405.47;5000437;28;20049;-63
2021/05/22 00:25:33;;;;;;;7.65;2.25;;;;;;;9.73;100.00;99406.50;5004592;28;20128;-61
2021/05/22 00:28:00;;;;;;;7.78;2.17;;;;;;;9.70;100.00;99401.38;5007170;28;20089;-63
2021/05/22 00:30:27;;;;;;;11.35;2.00;;;;;;;9.69;99.75;99397.03;5008158;28;20045;-61
2021/05/22 00:32:53;;;;;;;6.20;2.00;;;;;;;9.69;99.58;99404.97;5008350;28;20088;-62
2021/05/22 00:35:20;;;;;;;6.05;2.05;;;;;;;9.68;99.89;99390.91;5006783;28;20068;-61
2021/05/22 00:37:46;;;;;;;6.32;2.03;;;;;;;9.77;100.00;99400.91;5010379;28;22587;-64
2021/05/22 00:40:13;;;;;;;5.03;1.67;;;;;;;9.81;100.00;99398.94;5002992;28;20054;-62
2021/05/22 00:42:40;;;;;;;6.75;1.98;;;;;;;9.85;99.72;99406.59;5010265;28;20744;-61
2021/05/22 00:45:08;;;;;;;7.15;1.85;;;;;;;9.85;99.18;99397.81;5008434;28;20050;-65
2021/05/22 00:47:37;;;;;;;6.82;1.77;;;;;;;9.88;99.21;99397.66;5011267;28;20069;-64
2021/05/22 00:50:06;;;;;;;7.15;1.50;;;;;;;9.89;99.49;99396.72;5007067;28;20119;-63
2021/05/22 00:52:33;;;;;;;4.65;1.80;;;;;;;9.88;99.21;99396.78;5010162;28;20042;-61
2021/05/22 00:55:00;;;;;;;7.18;2.15;;;;;;;9.89;98.75;99404.63;5010876;28;20046;-63
2021/05/22 00:57:27;;;;;;;4.93;1.58;;;;;;;9.89;98.45;99415.22;5007163;28;20120;-63
2021/05/22 00:59:54;;;;;;;5.60;2.08;;;;;;;9.91;98.24;99418.63;5011682;28;20990;-61
2021/05/22 01:02:23;;;;;;;4.75;1.77;;;;;;;9.87;98.40;99430.31;4995382;28;20049;-61
2021/05/22 01:04:52;;;;;;;9.88;1.90;;;;;;;9.88;98.69;99432.03;4993742;28;20478;-63
2021/05/22 01:07:19;;;;;;;7.32;2.10;;;;;;;9.83;99.34;99423.50;5012708;28;20541;-61
2021/05/22 01:09:49;;;;;;;8.65;2.45;;;;;;;9.85;99.47;99430.41;5009938;28;20149;-61
2021/05/22 01:12:17;;;;;;;7.18;2.08;;;;;;;9.89;99.67;99430.22;5012126;28;20046;-64
2021/05/22 01:14:52;;;;;;;9.65;2.00;;;;;;;9.89;99.55;99427.59;5012452;28;20091;-62
2021/05/22 01:17:20;;;;;;;7.35;1.95;;;;;;;9.92;99.49;99436.16;5010747;28;20058;-62
2021/05/22 01:19:54;;;;;;;5.25;1.75;;;;;;;9.91;99.66;99439.78;5014306;28;20071;-61
2021/05/22 01:22:23;;;;;;;6.07;1.65;;;;;;;9.84;99.32;99433.13;4995558;28;20057;-61
2021/05/22 01:25:20;;;;;;;5.57;1.67;;;;;;;9.84;99.49;99430.50;4995400;28;20050;-62
2021/05/22 01:27:48;;;;;;;6.85;2.05;;;;;;;9.83;98.24;99431.44;5011153;28;20061;-61
2021/05/22 01:30:15;;;;;;;7.32;1.88;;;;;;;9.84;98.79;99438.44;5001032;28;20154;-63
2021/05/22 01:32:42;;;;;;;4.80;1.60;;;;;;;9.84;98.81;99436.63;5009963;28;20078;-63
2021/05/22 01:35:10;;;;;;;4.15;1.60;;;;;;;9.85;98.57;99442.78;5000559;28;20525;-62
2021/05/22 01:37:37;;;;;;;6.93;1.77;;;;;;;9.84;98.32;99449.00;5007805;28;20115;-64
2021/05/22 01:40:04;;;;;;;5.70;1.50;;;;;;;9.84;98.41;99444.56;5012367;28;20469;-63
2021/05/22 01:42:31;;;;;;;6.72;1.50;;;;;;;9.84;98.56;99455.16;5010984;28;20054;-65
2021/05/22 01:44:57;;;;;;;4.32;1.73;;;;;;;9.79;98.90;99449.25;5009948;28;20053;-63
2021/05/22 01:47:25;;;;;;;4.15;1.60;;;;;;;9.77;98.96;99447.66;5008417;28;20077;-62
2021/05/22 01:49:52;;;;;;;5.60;1.52;;;;;;;9.75;99.00;99437.19;5006286;28;20105;-63
2021/05/22 01:52:21;;;;;;;6.88;1.80;;;;;;;9.75;99.49;99438.97;5008995;28;20050;-64
2021/05/22 01:54:49;;;;;;;5.50;1.95;;;;;;;9.74;99.74;99424.06;5009314;28;20525;-63
2021/05/22 01:57:16;;;;;;;3.65;1.70;;;;;;;9.78;99.92;99430.84;5009074;28;20054;-63
2021/05/22 01:59:43;;;;;;;4.40;1.75;;;;;;;9.85;100.00;99432.19;5009274;28;20061;-63
2021/05/22 02:02:09;;;;;;;4.95;1.65;;;;;;;9.89;99.66;99435.53;5008418;28;20072;-64
2021/05/22 02:04:42;;;;;;;7.25;2.15;;;;;;;9.88;99.23;99424.09;5010525;28;20038;-61
2021/05/22 02:07:09;;;;;;;6.75;2.28;;;;;;;9.93;99.71;99442.31;5009389;28;20049;-63
2021/05/22 02:09:38;;;;;;;4.97;1.83;;;;;;;9.95;99.41;99430.69;4998544;28;20062;-64
2021/05/22 02:12:06;;;;;;;6.80;1.83;;;;;;;9.97;99.67;99435.91;5008740;28;20141;-63
2021/05/22 02:14:37;;;;;;;5.22;1.80;;;;;;;9.97;99.60;99442.03;5009554;28;20532;-65
2021/05/22 02:17:06;;;;;;;4.32;1.77;;;;;;;10.03;99.79;99430.25;5001721;28;20050;-63
2021/05/22 02:19:36;;;;;;;4.97;1.90;;;;;;;10.08;99.69;99442.25;5007198;28;20554;-63
2021/05/22 02:22:10;;;;;;;6.07;2.15;;;;;;;10.12;99.63;99433.19;5006997;28;20128;-60
2021/05/22 02:24:37;;;;;;;4.88;1.50;;;;;;;10.10;99.29;99411.25;5009682;28;20052;-62
2021/05/22 02:27:04;;;;;;;4.60;1.60;;;;;;;10.09;98.45;99425.44;5008733;28;20076;-63
2021/05/22 02:29:35;;;;;;;6.75;1.75;;;;;;;10.10;99.09;99429.78;5009208;28;20053;-61
2021/05/22 02:32:03;;;;;;;;;;;;;;;10.08;99.02;99431.66;5007243;28;20082;-61
2021/05/22 02:34:46;;;;;;;5.82;1.63;;;;;;;10.09;98.75;99430.72;5008211;28;19933;-60
2021/05/22 02:37:16;;;;;;;6.30;1.83;;;;;;;10.06;98.55;99430.94;4989811;28;20114;-64
2021/05/22 02:39:43;;;;;;;;;;;;;;;10.01;98.37;99433.00;5009502;28;20103;-63
2021/05/22 02:42:14;;;;;;;4.97;1.58;;;;;;;10.01;98.45;99440.94;5008821;28;19929;-63
2021/05/22 02:44:43;;;;;;;2.80;1.23;;;;;;;10.03;98.12;99438.19;5001977;28;20046;-62
2021/05/22 02:47:11;;;;;;;3.92;1.85;;;;;;;10.01;97.81;99435.63;5006616;28;20072;-62
2021/05/22 02:49:42;;;;;;;3.08;1.42;;;;;;;9.98;97.73;99435.81;5004121;28;20471;-62
2021/05/22 02:52:14;;;;;;;3.08;1.38;;;;;;;9.93;97.74;99437.00;5007326;28;20913;-63
2021/05/22 02:54:43;;;;;;;3.67;1.50;;;;;;;9.90;98.07;99429.28;5010032;28;20054;-63
2021/05/22 02:57:11;;;;;;;3.30;1.30;;;;;;;9.87;98.66;99426.81;5004328;28;20060;-60
2021/05/22 02:59:39;;;;;;;1.73;1.20;;;;;;;9.83;98.69;99429.63;5006965;28;20053;-60
2021/05/22 03:02:07;;;;;;;3.75;1.40;;;;;;;9.85;98.53;99429.56;5008722;28;20064;-59
2021/05/22 03:04:34;;;;;;;3.22;1.40;;;;;;;9.90;97.86;99424.00;4992895;28;20109;-62
2021/05/22 03:07:02;;;;;;;6.28;1.70;;;;;;;9.89;97.90;99422.31;5010434;28;20121;-63
2021/05/22 03:09:29;;;;;;;3.75;1.45;;;;;;;9.88;97.99;99418.81;5006548;28;20045;-61
2021/05/22 03:11:56;;;;;;;3.45;1.33;;;;;;;9.82;98.48;99409.44;5010095;28;20428;-59
2021/05/22 03:14:23;;;;;;;2.85;1.25;;;;;;;9.85;98.29;99424.28;5010675;28;20109;-62
2021/05/22 03:16:49;;;;;;;2.83;1.58;;;;;;;9.79;97.78;99420.19;5011182;28;20117;-61
2021/05/22 03:19:16;;;;;;;3.05;1.60;;;;;;;9.78;97.88;99422.91;5008156;28;20110;-63
2021/05/22 03:21:42;;;;;;;3.20;1.42;;;;;;;9.80;98.16;99416.59;5010251;28;20038;-61
2021/05/22 03:24:09;;;;;;;2.55;1.40;;;;;;;9.80;97.99;99416.59;5010195;28;20065;-61
2021/05/22 03:26:36;;;;;;;4.20;1.50;;;;;;;9.84;97.36;99422.56;5010209;28;20054;-61
2021/05/22 03:29:02;;;;;;;4.00;1.40;;;;;;;9.81;97.53;99420.09;5007650;28;20069;-62
2021/05/22 03:31:29;;;;;;;5.78;1.30;;;;;;;9.82;97.07;99419.16;5006023;28;20480;-61
2021/05/22 03:33:56;;;;;;;3.22;1.27;;;;;;;9.81;96.63;99420.09;5014217;28;20121;-62
2021/05/22 03:36:22;;;;;;;4.75;1.50;;;;;;;9.72;96.65;99415.38;5010062;28;20045;-61
2021/05/22 03:38:49;;;;;;;2.53;1.50;;;;;;;9.68;97.01;99421.75;5005224;28;20157;-61
2021/05/22 03:41:15;;;;;;;6.65;1.60;;;;;;;9.63;96.26;99411.44;5010173;28;20053;-60
2021/05/22 03:43:42;;;;;;;3.63;1.30;;;;;;;9.47;95.88;99414.13;5010702;28;20124;-61
2021/05/22 03:46:08;;;;;;;6.25;1.90;;;;;;;9.40;96.30;99415.44;5013697;28;20050;-61
2021/05/22 03:48:35;;;;;;;5.22;1.45;;;;;;;9.37;96.44;99415.63;5012435;28;21061;-63
2021/05/22 03:51:02;;;;;;;4.00;1.45;;;;;;;9.29;96.47;99415.19;4982421;28;20042;-60
2021/05/22 03:53:28;;;;;;;5.55;1.77;;;;;;;9.25;96.24;99418.13;5008865;28;20057;-61
2021/05/22 03:55:57;;;;;;;4.03;1.65;;;;;;;9.15;96.54;99423.91;5009407;28;20050;-60
2021/05/22 03:58:23;;;;;;;6.57;2.05;;;;;;;9.18;96.72;99428.16;5012343;28;20058;-61
2021/05/22 04:00:50;;;;;;;4.32;1.60;;;;;;;9.18;96.34;99429.97;5010908;28;20125;-59
2021/05/22 04:03:16;;;;;;;4.68;1.40;;;;;;;9.19;95.76;99435.16;5007179;28;20058;-62
2021/05/22 04:05:43;;;;;;;6.25;1.80;;;;;;;9.21;95.00;99433.28;5004937;28;20416;-62
2021/05/22 04:08:10;;;;;;;4.13;1.55;;;;;;;9.22;94.17;99435.00;5015503;28;20056;-63
2021/05/22 04:10:36;;;;;;;4.25;1.45;;;;;;;9.25;93.74;99426.91;5015907;28;20060;-62
2021/05/22 04:13:02;;;;;;;4.60;1.63;;;;;;;9.24;93.66;99433.13;5006939;28;20049;-61
2021/05/22 04:15:29;;;;;;;5.75;1.33;;;;;;;9.28;93.61;99428.50;5018082;28;20050;-61
2021/05/22 04:17:56;;;;;;;5.13;1.60;;;;;;;9.27;92.52;99438.22;5007234;28;20080;-64
2021/05/22 04:20:22;;;;;;;2.75;1.27;;;;;;;9.25;93.54;99432.19;5015448;28;20054;-60
2021/05/22 04:22:49;;;;;;;6.00;1.77;;;;;;;9.29;93.28;99431.03;5009782;28;20140;-61
2021/05/22 04:25:15;;;;;;;5.55;1.60;;;;;;;9.30;93.91;99423.97;5011459;28;20054;-61
2021/05/22 04:27:42;;;;;;;5.25;1.75;;;;;;;9.38;94.20;99424.41;5011341;28;20124;-62
2021/05/22 04:30:09;;;;;;;8.93;1.52;;;;;;;9.48;93.89;99425.56;4997885;28;21225;-62
2021/05/22 04:32:36;;;;;;;7.35;1.70;;;;;;;9.54;93.21;99446.34;5013243;28;20116;-60
2021/05/22 04:35:03;;;;;;;7.45;1.77;;;;;;;9.50;93.06;99437.75;4996761;28;20084;-60
2021/05/22 04:37:30;;;;;;;7.40;1.33;;;;;;;9.59;92.31;99436.38;5011888;28;20065;-60
2021/05/22 04:39:56;;;;;;;8.77;1.60;;;;;;;9.64;91.53;99441.38;5011502;28;20085;-59
2021/05/22 04:42:23;;;;;;;3.63;1.50;;;;;;;9.68;92.39;99440.28;5012568;28;20054;-60
2021/05/22 04:44:49;;;;;;;5.93;1.50;;;;;;;9.74;91.89;99438.13;5016003;28;20192;-63
2021/05/22 04:47:16;;;;;;;7.60;1.65;;;;;;;9.77;90.55;99437.91;5009427;28;20050;-58
2021/05/22 04:49:42;;;;;;;7.72;1.65;;;;;;;9.84;90.94;99444.56;4993454;28;20125;-60
2021/05/22 04:52:09;;;;;;;7.45;1.48;;;;;;;9.92;90.24;99446.75;5012007;28;20054;-60
2021/05/22 04:54:36;;;;;;;5.65;1.77;;;;;;;10.05;89.59;99439.81;5011583;28;20081;-62
2021/05/22 04:57:03;;;;;;;7.47;1.75;;;;;;;10.24;86.97;99446.63;5010445;28;20141;-61
2021/05/22 04:59:29;;;;;;;4.72;1.42;;;;;;;10.36;86.12;99440.63;5009432;28;20842;-62
2021/05/22 05:01:56;;;;;;;4.32;1.90;;;;;;;10.45;84.69;99443.53;5011808;28;20174;-64
2021/05/22 05:04:22;;;;;;;5.38;1.42;;;;;;;10.46;83.91;99436.47;4994172;28;20157;-60
2021/05/22 05:06:49;;;;;;;6.97;1.65;;;;;;;10.47;83.82;99440.81;4994206;28;20054;-61
2021/05/22 05:09:15;;;;;;;4.15;1.30;;;;;;;10.41;84.08;99425.28;5003255;28;20348;-61
2021/05/22 05:11:42;;;;;;;4.97;1.45;;;;;;;10.42;83.42;99432.28;4995870;28;20870;-61
2021/05/22 05:14:09;;;;;;;6.57;1.33;;;;;;;10.46;82.85;99439.97;5009176;28;20080;-62
2021/05/22 05:16:35;;;;;;;5.78;1.15;;;;;;;10.49;82.72;99439.78;5005135;28;20058;-64
2021/05/22 05:19:02;;;;;;;9.63;1.55;;;;;;;10.52;83.01;99438.75;5014781;28;20147;-62
2021/05/22 05:21:29;;;;;;;7.03;1.40;;;;;;;10.64;81.74;99443.25;5015349;28;20057;-62
2021/05/22 05:23:56;;;;;;;7.13;1.60;;;;;;;10.64;80.89;99445.06;5010595;28;20057;-61
2021/05/22 05:26:22;;;;;;;9.25;1.58;;;;;;;10.68;80.40;99447.44;5013911;28;20118;-62
2021/05/22 05:28:49;;;;;;;3.95;1.33;;;;;;;10.86;79.90;99442.78;5001027;28;20056;-60
2021/05/22 05:31:15;;;;;;;5.47;1.13;;;;;;;11.04;78.86;99453.97;4990880;28;20458;-61
2021/05/22 05:33:42;;;;;;;10.00;1.65;;;;;;;11.24;78.08;99451.75;5014003;28;21055;-62
2021/05/22 05:36:08;;;;;;;8.48;1.48;;;;;;;11.43;77.75;99450.56;5010743;28;20049;-61
2021/05/22 05:38:35;;;;;;;5.32;1.40;;;;;;;11.66;76.43;99451.69;5012348;28;20052;-63
2021/05/22 05:41:02;;;;;;;6.75;1.33;;;;;;;11.76;75.80;99451.03;4995509;28;20144;-62
2021/05/22 05:43:28;;;;;;;4.63;1.42;;;;;;;12.03;75.08;99455.44;5009544;28;20113;-63
2021/05/22 05:45:55;;;;;;;3.22;1.08;;;;;;;12.25;73.71;99453.03;5008893;28;22084;-63
2021/05/22 05:48:21;;;;;;;3.45;1.33;;;;;;;12.36;72.17;99452.28;4997161;28;20109;-60
2021/05/22 05:50:48;;;;;;;6.25;1.20;;;;;;;12.28;71.42;99455.44;5009313;28;20088;-61
2021/05/22 05:53:14;;;;;;;6.25;1.55;;;;;;;12.25;70.43;99451.22;5001376;28;20152;-63
2021/05/22 05:55:41;;;;;;;5.53;1.40;;;;;;;12.27;71.74;99465.25;5014209;28;20521;-61
2021/05/22 05:58:08;;;;;;;7.20;1.67;;;;;;;12.21;70.53;99451.53;5011416;28;20080;-61
2021/05/22 06:00:35;;;;;;;6.93;1.25;;;;;;;12.20;70.41;99449.81;5010950;28;20057;-62
2021/05/22 06:03:02;;;;;;;11.02;1.80;;;;;;;12.36;70.37;99442.50;5016556;28;20053;-63
2021/05/22 06:05:30;;;;;;;6.47;1.30;;;;;;;12.50;69.28;99452.16;5010324;28;20054;-63
2021/05/22 06:07:56;;;;;;;3.75;0.80;;;;;;;12.73;67.86;99439.94;5006840;28;20814;-62
2021/05/22 06:10:24;;;;;;;5.57;1.20;;;;;;;12.89;64.97;99444.06;5009857;28;20129;-62
2021/05/22 06:12:51;;;;;;;6.78;1.25;;;;;;;12.85;65.52;99439.91;5007192;28;20593;-61
2021/05/22 06:17:45;;;;;;;4.55;1.02;;;;;;;13.46;62.84;99432.81;5004356;28;20152;-61
2021/05/22 06:20:12;;;;;;;6.78;1.17;;;;;;;14.56;59.29;99429.75;5002372;28;20064;-62
2021/05/22 06:22:40;;;;;;;3.80;1.10;;;;;;;15.76;55.08;99427.94;5020843;28;20091;-61
2021/05/22 06:25:07;;;;;;;8.55;1.42;;;;;;;16.88;51.34;99425.41;5005012;28;20081;-61
2021/05/22 06:27:34;;;;;;;6.00;0.98;;;;;;;18.46;45.90;99436.75;5011087;28;20053;-60
2021/05/22 06:30:01;;;;;;;6.85;1.30;;;;;;;19.54;42.85;99434.31;5015346;28;20479;-62
2021/05/22 06:32:28;;;;;;;6.20;1.50;;;;;;;20.32;41.27;99427.25;5011624;28;20085;-63
2021/05/22 06:34:55;;;;;;;3.88;0.90;;;;;;;21.18;39.27;99436.16;4999339;28;22336;-60
2021/05/22 06:37:23;;;;;;;6.97;1.17;;;;;;;21.78;37.62;99433.31;5017845;28;20121;-60
2021/05/22 06:39:50;;;;;;;5.72;1.15;;;;;;;22.49;36.08;99451.53;5016636;28;20121;-61
2021/05/22 06:42:16;;;;;;;5.70;1.05;;;;;;;22.28;35.83;99441.28;4995777;28;20045;-63
2021/05/22 06:45:27;;;;;;;6.18;0.82;;;;;;;23.15;34.97;99447.63;4998334;28;20457;-64
2021/05/22 06:47:32;;;;;;;5.27;1.03;;;;;;;22.17;36.39;99462.34;5011044;28;20109;-63
2021/05/22 06:49:59;;;;;;;3.92;1.13;;;;;;;21.95;36.74;99456.56;5012457;28;20520;-60
2021/05/22 06:52:25;;;;;;;5.30;1.10;;;;;;;22.09;35.98;99463.19;5012446;28;20734;-62
2021/05/22 06:54:52;;;;;;;6.53;1.73;;;;;;;20.91;37.82;99460.63;5009874;28;20108;-63
2021/05/22 06:57:19;;;;;;;3.85;1.08;;;;;;;19.06;40.59;99458.72;5011713;28;20140;-63
2021/05/22 06:59:46;;;;;;;6.35;1.20;;;;;;;17.61;42.93;99466.16;5012130;28;20050;-64
2021/05/22 07:02:13;;;;;;;5.68;1.23;;;;;;;16.19;47.06;99465.25;5010348;28;20521;-62
2021/05/22 07:04:41;;;;;;;5.82;1.08;;;;;;;15.20;50.60;99465.44;4999446;28;20061;-61
2021/05/22 07:07:07;;;;;;;5.80;1.00;;;;;;;14.51;54.17;99475.38;5008624;28;20064;-62
2021/05/22 07:09:35;;;;;;;8.40;1.38;;;;;;;14.00;55.05;99480.22;5010546;28;20069;-63
2021/05/22 07:12:02;;;;;;;8.93;2.03;;;;;;;13.67;56.69;99475.59;4991981;28;20152;-62
2021/05/22 07:14:29;;;;;;;5.00;1.33;;;;;;;13.56;57.92;99481.69;5008124;28;20049;-64
2021/05/22 07:16:57;;;;;;;7.40;1.27;;;;;;;13.62;57.68;99473.28;4985661;28;20077;-62
2021/05/22 07:19:26;;;;;;;8.35;2.42;;;;;;;14.26;55.56;99464.91;5003391;28;20046;-59
2021/05/22 07:21:53;;;;;;;8.45;1.42;;;;;;;16.36;50.50;99467.34;5004210;28;20644;-63
2021/05/22 07:24:21;;;;;;;6.40;1.30;;;;;;;17.97;45.79;99470.81;5006629;28;20054;-63
2021/05/22 07:26:48;;;;;;;6.40;1.25;;;;;;;18.74;45.00;99472.56;5004242;28;20069;-62
2021/05/22 07:29:15;;;;;;;4.80;1.15;;;;;;;19.71;41.69;99480.97;5007303;28;20060;-64
2021/05/22 07:31:43;;;;;;;6.15;1.30;;;;;;;19.45;42.07;99472.78;4995635;28;20050;-63
2021/05/22 07:34:10;;;;;;;4.07;1.10;;;;;;;18.46;43.16;99474.28;5008217;28;20085;-63
2021/05/22 07:36:38;;;;;;;4.70;1.08;;;;;;;17.53;46.78;99480.22;5007923;28;20065;-61
2021/05/22 07:39:09;;;;;;;3.65;0.85;;;;;;;16.54;48.48;99475.56;5008186;28;20081;-61
2021/05/22 07:41:40;;;;;;;4.07;1.02;;;;;;;15.60;51.59;99468.41;5009455;28;20114;-62
2021/05/22 07:44:10;;;;;;;8.85;1.10;;;;;;;14.93;52.19;99489.00;5012147;28;20038;-61
2021/05/22 07:46:37;;;;;;;5.18;1.02;;;;;;;14.34;54.27;99497.97;5008065;28;20046;-60
2021/05/22 07:49:18;;;;;;;7.47;1.77;;;;;;;13.95;55.60;99501.84;5008544;28;20058;-61
2021/05/22 07:51:46;;;;;;;7.68;1.77;;;;;;;13.65;57.25;99499.66;4996604;28;20054;-63
2021/05/22 07:54:15;;;;;;;5.63;1.23;;;;;;;13.44;57.83;99500.38;5005735;28;20082;-62
2021/05/22 07:56:42;;;;;;;4.75;1.30;;;;;;;13.40;57.98;99497.06;5013270;28;20061;-61
2021/05/22 07:59:09;;;;;;;5.25;1.55;;;;;;;13.64;59.29;99497.97;5007636;28;20076;-63
2021/05/22 08:01:36;;;;;;;5.85;1.08;;;;;;;13.74;57.18;99498.13;4996310;28;20512;-63
2021/05/22 08:04:02;;;;;;;4.88;1.05;;;;;;;13.72;57.10;99509.84;5012728;28;20062;-60
2021/05/22 08:06:29;;;;;;;5.30;1.23;;;;;;;13.63;57.35;99509.56;4997952;28;20062;-60
2021/05/22 08:08:56;;;;;;;4.90;0.98;;;;;;;13.56;57.51;99507.44;5004538;28;20072;-61
2021/05/22 08:11:22;;;;;;;6.88;1.63;;;;;;;13.42;57.39;99512.94;5009924;28;20050;-59
2021/05/22 08:13:49;;;;;;;8.40;1.45;;;;;;;13.26;57.95;99511.38;5006665;28;20053;-62
2021/05/22 08:16:15;;;;;;;4.00;1.25;;;;;;;13.16;58.68;99518.31;5000197;28;20065;-63
2021/05/22 08:18:42;;;;;;;6.15;1.30;;;;;;;13.14;58.49;99508.72;5004551;28;20056;-63
2021/05/22 08:21:09;;;;;;;3.05;1.05;;;;;;;13.16;59.29;99513.00;5007411;28;20057;-62
2021/05/22 08:23:35;;;;;;;6.07;1.17;;;;;;;13.29;58.55;99512.97;5004791;28;20053;-61
2021/05/22 08:26:02;;;;;;;8.05;1.42;;;;;;;13.33;57.08;99525.09;5008013;28;20065;-60
2021/05/22 08:28:49;;;;;;;6.25;1.27;;;;;;;13.32;57.47;99512.75;5005412;28;20050;-64
2021/05/22 08:31:16;;;;;;;6.88;1.13;;;;;;;13.40;57.76;99507.72;5015264;28;20492;-63
2021/05/22 08:33:43;;;;;;;5.88;1.23;;;;;;;13.46;57.81;99515.25;4993810;28;20056;-62
2021/05/22 08:36:10;;;;;;;8.18;1.13;;;;;;;13.55;56.50;99509.25;5008856;28;20068;-62
2021/05/22 08:38:37;;;;;;;7.80;1.48;;;;;;;13.75;56.49;99510.47;4999871;28;20056;-62
2021/05/22 08:41:05;;;;;;;5.32;0.90;;;;;;;13.91;54.65;99505.69;4992185;28;20050;-62
2021/05/22 08:43:32;;;;;;;6.45;0.95;;;;;;;14.03;54.46;99506.59;4975801;28;20064;-62
2021/05/22 08:45:59;;;;;;;2.95;1.00;;;;;;;13.93;54.59;99514.41;4999098;28;20160;-61
2021/05/22 08:48:26;;;;;;;5.43;0.82;;;;;;;13.79;54.70;99503.09;4994093;28;20105;-62
2021/05/22 08:50:53;;;;;;;3.58;0.90;;;;;;;13.69;55.17;99517.06;4999444;28;20065;-62
2021/05/22 08:53:22;;;;;;;3.88;0.95;;;;;;;13.68;54.79;99520.72;5010849;28;20064;-62
2021/05/22 08:55:49;;;;;;;3.78;1.05;;;;;;;13.64;54.09;99519.25;5002781;28;20054;-60
2021/05/22 08:58:16;;;;;;;6.03;1.10;;;;;;;13.51;55.11;99510.47;5013523;28;20061;-61
2021/05/22 09:00:43;;;;;;;4.22;0.82;;;;;;;13.48;55.15;99529.31;5014615;28;20061;-64
2021/05/22 09:03:11;;;;;;;5.30;1.10;;;;;;;13.34;55.91;99518.81;5015249;28;20076;-63
2021/05/22 09:05:41;;;;;;;3.88;0.90;;;;;;;13.36;55.41;99527.53;5012931;28;20117;-61
2021/05/22 09:08:11;;;;;;;5.28;1.13;;;;;;;13.33;56.06;99523.28;4992376;28;20097;-62
2021/05/22 09:10:41;;;;;;;6.63;1.70;;;;;;;13.32;56.70;99536.69;5009293;28;20053;-64
2021/05/22 09:13:13;;;;;;;4.40;1.15;;;;;;;13.34;57.26;99524.97;5013851;28;20049;-62
2021/05/22 09:15:42;;;;;;;4.63;0.75;;;;;;;13.45;56.69;99531.31;4998361;28;20436;-63
2021/05/22 09:18:13;;;;;;;2.47;0.70;;;;;;;13.74;55.71;99529.19;5004541;28;20058;-61
2021/05/22 09:20:41;;;;;;;;;;;;;;;13.92;55.32;99517.19;5008231;28;20058;-62
2021/05/22 09:23:12;;;;;;;5.68;1.05;;;;;;;13.99;54.63;99526.44;5014205;28;19930;-62
2021/05/22 09:25:42;;;;;;;6.63;2.85;;;;;;;14.04;54.74;99529.56;4994501;28;20053;-61
2021/05/22 09:28:10;;;;;;;3.72;1.20;;;;;;;14.15;53.91;99529.63;4990477;28;20140;-62
2021/05/22 09:30:39;;;;;;;5.50;0.98;;;;;;;14.34;53.47;99527.25;5014951;28;20065;-62
2021/05/22 09:33:14;;;;;;;4.13;0.90;;;;;;;14.54;52.94;99532.91;5008698;28;20164;-61
2021/05/22 09:35:49;;;;;;;4.53;1.00;;;;;;;14.72;51.97;99534.16;5013333;28;20102;-61
2021/05/22 09:38:15;;;;;;;7.68;1.13;;;;;;;14.79;51.94;99542.53;5013188;28;20114;-64
2021/05/22 09:40:43;;;;;;;4.75;1.00;;;;;;;14.80;52.36;99541.53;4995191;28;20050;-62
2021/05/22 09:43:10;;;;;;;5.95;0.98;;;;;;;14.76;52.09;99529.44;5012501;28;20058;-63
2021/05/22 09:45:39;;;;;;;3.83;0.82;;;;;;;14.51;52.39;99527.81;5009976;28;20133;-61
2021/05/22 09:48:15;;;;;;;4.57;0.80;;;;;;;14.35;52.65;99542.28;5005623;28;20058;-62
2021/05/22 09:50:47;;;;;;;3.70;0.80;;;;;;;14.35;52.66;99542.28;5009499;28;20109;-63
2021/05/22 09:53:40;;;;;;;2.65;0.70;;;;;;;14.20;52.38;99530.13;5006003;28;20050;-63
2021/05/22 09:56:13;;;;;;;3.03;1.23;;;;;;;14.09;52.21;99531.91;5005144;28;20054;-62
2021/05/22 09:58:55;;;;;;;2.72;0.80;;;;;;;14.18;52.39;99544.50;4996243;28;20048;-62
2021/05/22 10:01:29;;;;;;;3.63;0.80;;;;;;;14.27;52.46;99543.84;5010826;28;20617;-61
2021/05/22 10:04:17;;;;;;;2.97;0.93;;;;;;;14.32;52.09;99547.81;5009409;28;20061;-61
2021/05/22 10:06:44;;;;;;;3.28;0.95;;;;;;;14.32;52.57;99545.16;5008621;28;20050;-61
2021/05/22 10:09:13;;;;;;;2.15;1.00;;;;;;;14.42;52.54;99547.19;5009242;28;20118;-59
2021/05/22 10:12:10;;;;;;;4.53;1.13;;;;;;;14.48;52.73;99547.53;5008284;28;20041;-60
2021/05/22 10:14:39;;;;;;;5.60;1.13;;;;;;;14.56;52.24;99552.31;5009141;28;20056;-63
2021/05/22 10:17:09;;;;;;;4.22;0.75;;;;;;;14.52;52.07;99553.50;5008406;28;20054;-60
2021/05/22 10:19:37;;;;;;;6.17;1.23;;;;;;;14.68;51.24;99538.03;4997236;28;20050;-62
2021/05/22 10:22:06;;;;;;;4.97;1.05;;;;;;;14.69;50.97;99548.56;4991994;28;20042;-60
2021/05/22 10:24:33;;;;;;;10.57;1.27;;;;;;;14.70;51.21;99557.41;5004567;28;20077;-62
2021/05/22 10:27:00;;;;;;;5.28;1.20;;;;;;;14.73;51.59;99557.19;5006441;28;20058;-62
2021/05/22 10:29:32;;;;;;;4.75;1.25;;;;;;;14.81;51.48;99560.09;5003062;28;20176;-60
2021/05/22 10:32:00;;;;;;;4.90;1.20;;;;;;;15.11;51.50;99561.34;5007609;28;20080;-60
2021/05/22 10:34:27;;;;;;;3.40;0.90;;;;;;;15.48;50.31;99557.44;5004633;28;20085;-61
2021/05/22 10:36:56;;;;;;;3.65;0.88;;;;;;;15.66;50.03;99569.31;5006019;28;20058;-60
2021/05/22 10:39:50;;;;;;;3.83;0.90;;;;;;;15.68;50.38;99556.72;5006720;28;20053;-62
2021/05/22 10:42:22;;;;;;;3.20;0.85;;;;;;;15.63;50.37;99571.38;4998040;28;20118;-62
2021/05/22 10:44:49;;;;;;;3.17;0.90;;;;;;;15.68;50.38;99569.22;5006332;28;20050;-65
2021/05/22 10:47:18;;;;;;;4.32;1.00;;;;;;;15.62;51.58;99573.22;4986764;28;20087;-62
2021/05/22 10:49:50;;;;;;;3.20;1.10;;;;;;;15.59;51.36;99570.78;5020765;28;20109;-62
2021/05/22 10:52:28;;;;;;;3.70;1.08;;;;;;;15.51;51.10;99578.53;5011915;28;20100;-62
2021/05/22 10:55:12;;;;;;;3.30;1.08;;;;;;;15.37;51.43;99573.47;5010805;28;20049;-60
2021/05/22 10:57:45;;;;;;;5.18;1.10;;;;;;;15.41;51.32;99586.44;5009638;28;20049;-63
2021/05/22 11:00:21;;;;;;;3.50;1.00;;;;;;;15.40;51.33;99579.41;5013184;28;20133;-61
2021/05/22 11:02:52;;;;;;;3.58;1.10;;;;;;;15.50;52.46;99578.66;5006966;28;20053;-61
2021/05/22 11:05:28;;;;;;;3.90;1.00;;;;;;;15.54;50.16;99586.31;5010944;28;20057;-61
2021/05/22 11:08:03;;;;;;;3.00;0.90;;;;;;;15.73;48.90;99589.22;5009895;28;20056;-61
2021/05/22 11:10:43;;;;;;;1.65;0.60;;;;;;;16.06;47.97;99585.59;4996921;28;20146;-64
2021/05/22 11:13:20;;;;;;;3.67;0.90;;;;;;;16.18;46.54;99591.78;5011495;28;20148;-63
2021/05/22 11:15:54;;;;;;;1.48;0.50;;;;;;;16.32;47.14;99595.97;5013941;28;20045;-63
2021/05/22 11:18:21;;;;;;;5.05;0.95;;;;;;;16.32;46.17;99583.44;5011832;28;20046;-62
2021/05/22 11:21:10;;;;;;;3.53;0.70;;;;;;;16.62;45.63;99595.22;5013427;28;20045;-60
2021/05/22 11:23:58;;;;;;;7.75;0.88;;;;;;;17.01;45.48;99590.97;5014395;28;20124;-62
2021/05/22 11:26:49;;;;;;;2.95;0.70;;;;;;;17.08;44.83;99584.13;5004472;28;20129;-62
2021/05/22 11:29:16;;;;;;;4.13;0.70;;;;;;;16.99;45.34;99582.25;5015396;28;20144;-60
2021/05/22 11:31:42;;;;;;;2.78;0.93;;;;;;;16.64;45.40;99585.28;4994036;28;20065;-63
2021/05/22 11:34:24;;;;;;;4.43;0.90;;;;;;;16.35;46.94;99591.22;5014960;28;20050;-63
2021/05/22 11:37:09;;;;;;;3.40;0.80;;;;;;;16.34;47.33;99591.34;5013717;28;20096;-63
2021/05/22 11:39:42;;;;;;;3.00;0.90;;;;;;;16.23;46.99;99594.03;4990238;28;20088;-61
2021/05/22 11:42:28;;;;;;;0.95;0.57;;;;;;;16.40;46.91;99591.66;4999039;28;20797;-62
2021/05/22 11:44:56;;;;;;;2.35;0.82;;;;;;;16.71;46.89;99599.78;5011993;28;20104;-62
2021/05/22 11:47:32;;;;;;;3.58;0.80;;;;;;;16.89;45.92;99587.53;5012572;28;20050;-62